sensor_id;sensor_type;location;lat;lon;timestamp;pressure;altitude;pressure_sealevel;temperature;humidity
70954;BME280;58618;47.490;8.736;2022-08-01T00:00:08;96675.81;;;16.92;88.80
70954;BME280;58618;47.490;8.736;2022-08-01T00:02:56;96678.56;;;16.87;89.07
70954;BME280;58618;47.490;8.736;2022-08-01T00:05:43;96675.69;;;16.97;90.27
70954;BME280;58618;47.490;8.736;2022-08-01T00:08:31;96673.69;;;16.94;88.91
70954;BME280;58618;47.490;8.736;2022-08-01T00:11:18;96672.94;;;16.85;89.57
70954;BME280;58618;47.490;8.736;2022-08-01T00:14:07;96671.22;;;16.89;89.32
70954;BME280;58618;47.490;8.736;2022-08-01T00:16:56;96678.91;;;16.85;90.04
70954;BME280;58618;47.490;8.736;2022-08-01T00:19:43;96674.91;;;16.88;90.99
70954;BME280;58618;47.490;8.736;2022-08-01T00:22:31;96678.88;;;16.94;90.30
70954;BME280;58618;47.490;8.736;2022-08-01T00:25:19;96682.56;;;16.93;91.24
70954;BME280;58618;47.490;8.736;2022-08-01T00:28:06;96683.19;;;16.90;90.04
70954;BME280;58618;47.490;8.736;2022-08-01T00:30:55;96679.50;;;16.91;89.58
70954;BME280;58618;47.490;8.736;2022-08-01T00:33:43;96675.69;;;16.97;89.67
70954;BME280;58618;47.490;8.736;2022-08-01T00:36:30;96681.63;;;17.06;89.48
70954;BME280;58618;47.490;8.736;2022-08-01T00:39:17;96681.91;;;17.13;88.69
70954;BME280;58618;47.490;8.736;2022-08-01T00:42:06;96679.91;;;17.19;89.36
70954;BME280;58618;47.490;8.736;2022-08-01T00:44:54;96684.38;;;17.18;89.28
70954;BME280;58618;47.490;8.736;2022-08-01T00:47:42;96688.06;;;17.17;89.77
70954;BME280;58618;47.490;8.736;2022-08-01T00:50:30;96686.84;;;17.23;88.35
70954;BME280;58618;47.490;8.736;2022-08-01T00:53:17;96690.78;;;17.29;89.76
70954;BME280;58618;47.490;8.736;2022-08-01T00:56:05;96686.19;;;17.26;89.02
70954;BME280;58618;47.490;8.736;2022-08-01T00:58:54;96683.91;;;17.16;88.29
70954;BME280;58618;47.490;8.736;2022-08-01T01:01:41;96690.69;;;17.17;88.48
70954;BME280;58618;47.490;8.736;2022-08-01T01:04:30;96684.34;;;17.36;87.92
70954;BME280;58618;47.490;8.736;2022-08-01T01:07:21;96693.81;;;17.49;88.08
70954;BME280;58618;47.490;8.736;2022-08-01T01:10:15;96694.72;;;17.53;87.56
70954;BME280;58618;47.490;8.736;2022-08-01T01:13:06;96695.34;;;17.50;87.46
70954;BME280;58618;47.490;8.736;2022-08-01T01:15:58;96688.44;;;17.54;85.90
70954;BME280;58618;47.490;8.736;2022-08-01T01:18:47;96687.53;;;17.41;86.91
70954;BME280;58618;47.490;8.736;2022-08-01T01:22:00;96687.06;;;17.48;87.49
70954;BME280;58618;47.490;8.736;2022-08-01T01:25:04;96685.41;;;17.43;89.25
70954;BME280;58618;47.490;8.736;2022-08-01T01:28:02;96690.75;;;17.47;88.00
70954;BME280;58618;47.490;8.736;2022-08-01T01:30:55;96695.66;;;17.40;88.14
70954;BME280;58618;47.490;8.736;2022-08-01T01:33:44;96697.84;;;17.38;88.13
70954;BME280;58618;47.490;8.736;2022-08-01T01:36:32;96696.00;;;17.29;89.10
70954;BME280;58618;47.490;8.736;2022-08-01T01:39:20;96695.09;;;17.25;89.93
70954;BME280;58618;47.490;8.736;2022-08-01T01:42:09;96691.13;;;17.19;90.47
70954;BME280;58618;47.490;8.736;2022-08-01T01:44:58;96692.03;;;17.15;90.98
70954;BME280;58618;47.490;8.736;2022-08-01T01:47:48;96689.00;;;17.04;90.06
70954;BME280;58618;47.490;8.736;2022-08-01T01:50:37;96679.78;;;16.98;89.64
70954;BME280;58618;47.490;8.736;2022-08-01T01:53:27;96689.00;;;17.04;89.66
70954;BME280;58618;47.490;8.736;2022-08-01T01:56:15;96686.25;;;16.92;90.52
70954;BME280;58618;47.490;8.736;2022-08-01T01:59:03;96691.00;;;16.90;91.02
70954;BME280;58618;47.490;8.736;2022-08-01T02:01:52;96691.75;;;16.82;91.37
70954;BME280;58618;47.490;8.736;2022-08-01T02:04:45;96691.75;;;16.82;92.04
70954;BME280;58618;47.490;8.736;2022-08-01T02:07:34;96686.84;;;16.72;91.98
70954;BME280;58618;47.490;8.736;2022-08-01T02:10:23;96691.91;;;16.77;91.44
70954;BME280;58618;47.490;8.736;2022-08-01T02:13:11;96691.47;;;16.75;90.97
70954;BME280;58618;47.490;8.736;2022-08-01T02:15:59;96689.78;;;16.70;90.32
70954;BME280;58618;47.490;8.736;2022-08-01T02:18:47;96700.66;;;16.64;90.96
70954;BME280;58618;47.490;8.736;2022-08-01T02:21:39;96692.06;;;16.72;91.81
70954;BME280;58618;47.490;8.736;2022-08-01T02:24:36;96688.56;;;16.68;90.30
70954;BME280;58618;47.490;8.736;2022-08-01T02:27:27;96694.81;;;16.67;89.94
70954;BME280;58618;47.490;8.736;2022-08-01T02:30:16;96689.03;;;16.70;91.94
70954;BME280;58618;47.490;8.736;2022-08-01T02:33:05;96687.63;;;16.72;90.99
70954;BME280;58618;47.490;8.736;2022-08-01T02:35:58;96697.00;;;16.65;90.82
70954;BME280;58618;47.490;8.736;2022-08-01T02:38:48;96694.81;;;16.50;90.68
70954;BME280;58618;47.490;8.736;2022-08-01T02:41:39;96695.28;;;16.60;90.93
70954;BME280;58618;47.490;8.736;2022-08-01T02:44:30;96704.81;;;16.65;91.36
70954;BME280;58618;47.490;8.736;2022-08-01T02:47:19;96707.41;;;16.65;91.13
70954;BME280;58618;47.490;8.736;2022-08-01T02:50:10;96696.63;;;16.58;91.92
70954;BME280;58618;47.490;8.736;2022-08-01T02:53:00;96707.81;;;16.58;91.52
70954;BME280;58618;47.490;8.736;2022-08-01T02:55:51;96711.66;;;16.61;90.89
70954;BME280;58618;47.490;8.736;2022-08-01T02:58:40;96706.78;;;16.68;90.82
70954;BME280;58618;47.490;8.736;2022-08-01T03:01:31;96703.09;;;16.60;91.31
70954;BME280;58618;47.490;8.736;2022-08-01T03:04:20;96704.97;;;16.60;91.17
70954;BME280;58618;47.490;8.736;2022-08-01T03:07:10;96698.16;;;16.41;91.11
70954;BME280;58618;47.490;8.736;2022-08-01T03:09:57;96703.97;;;16.56;91.33
70954;BME280;58618;47.490;8.736;2022-08-01T03:12:48;96704.28;;;16.45;91.62
70954;BME280;58618;47.490;8.736;2022-08-01T03:15:38;96701.66;;;16.45;90.81
70954;BME280;58618;47.490;8.736;2022-08-01T03:18:28;96701.34;;;16.30;90.72
70954;BME280;58618;47.490;8.736;2022-08-01T03:21:18;96702.72;;;16.27;90.55
70954;BME280;58618;47.490;8.736;2022-08-01T03:24:07;96707.75;;;16.24;91.50
70954;BME280;58618;47.490;8.736;2022-08-01T03:26:57;96706.06;;;16.19;91.88
70954;BME280;58618;47.490;8.736;2022-08-01T03:29:47;96710.97;;;16.29;91.33
70954;BME280;58618;47.490;8.736;2022-08-01T03:32:35;96708.84;;;16.31;93.28
70954;BME280;58618;47.490;8.736;2022-08-01T03:35:25;96710.69;;;16.22;92.05
70954;BME280;58618;47.490;8.736;2022-08-01T03:38:18;96707.44;;;16.17;92.26
70954;BME280;58618;47.490;8.736;2022-08-01T03:41:09;96706.84;;;16.20;92.99
70954;BME280;58618;47.490;8.736;2022-08-01T03:44:02;96718.00;;;16.20;92.40
70954;BME280;58618;47.490;8.736;2022-08-01T03:46:56;96715.25;;;16.17;92.65
70954;BME280;58618;47.490;8.736;2022-08-01T03:49:46;96721.69;;;16.19;93.71
70954;BME280;58618;47.490;8.736;2022-08-01T03:52:36;96725.19;;;16.06;92.81
70954;BME280;58618;47.490;8.736;2022-08-01T03:55:25;96716.56;;;15.97;93.61
70954;BME280;58618;47.490;8.736;2022-08-01T03:58:14;96720.41;;;16.08;93.89
70954;BME280;58618;47.490;8.736;2022-08-01T04:01:01;96715.22;;;16.08;93.43
70954;BME280;58618;47.490;8.736;2022-08-01T04:03:50;96712.75;;;16.03;92.92
70954;BME280;58618;47.490;8.736;2022-08-01T04:06:38;96717.66;;;16.04;92.91
70954;BME280;58618;47.490;8.736;2022-08-01T04:09:25;96725.75;;;16.03;92.46
70954;BME280;58618;47.490;8.736;2022-08-01T04:12:13;96724.69;;;16.04;91.92
70954;BME280;58618;47.490;8.736;2022-08-01T04:15:01;96723.50;;;16.10;92.44
70954;BME280;58618;47.490;8.736;2022-08-01T04:17:48;96731.16;;;16.15;92.32
70954;BME280;58618;47.490;8.736;2022-08-01T04:20:37;96731.03;;;16.20;91.24
70954;BME280;58618;47.490;8.736;2022-08-01T04:23:25;96735.50;;;16.28;91.11
70954;BME280;58618;47.490;8.736;2022-08-01T04:26:14;96734.28;;;16.34;91.98
70954;BME280;58618;47.490;8.736;2022-08-01T04:29:04;96739.47;;;16.34;92.14
70954;BME280;58618;47.490;8.736;2022-08-01T04:31:54;96745.31;;;16.40;92.68
70954;BME280;58618;47.490;8.736;2022-08-01T04:34:44;96759.44;;;16.47;91.48
70954;BME280;58618;47.490;8.736;2022-08-01T04:37:35;96750.22;;;16.41;90.59
70954;BME280;58618;47.490;8.736;2022-08-01T04:40:24;96755.50;;;16.59;90.54
70954;BME280;58618;47.490;8.736;2022-08-01T04:43:13;96748.78;;;16.75;89.96
70954;BME280;58618;47.490;8.736;2022-08-01T04:46:02;96753.38;;;16.78;89.71
70954;BME280;58618;47.490;8.736;2022-08-01T04:48:50;96756.16;;;16.90;89.94
70954;BME280;58618;47.490;8.736;2022-08-01T04:51:49;96753.25;;;17.00;88.84
70954;BME280;58618;47.490;8.736;2022-08-01T04:54:39;96757.34;;;17.18;88.68
70954;BME280;58618;47.490;8.736;2022-08-01T04:57:26;96759.97;;;17.27;88.07
70954;BME280;58618;47.490;8.736;2022-08-01T05:00:14;96756.41;;;17.49;88.00
70954;BME280;58618;47.490;8.736;2022-08-01T05:03:03;96753.78;;;17.66;86.93
70954;BME280;58618;47.490;8.736;2022-08-01T05:05:50;96762.03;;;17.77;86.02
70954;BME280;58618;47.490;8.736;2022-08-01T05:08:38;96763.91;;;17.76;84.31
70954;BME280;58618;47.490;8.736;2022-08-01T05:11:28;96766.75;;;18.00;85.20
70954;BME280;58618;47.490;8.736;2022-08-01T05:14:16;96761.72;;;18.25;83.25
70954;BME280;58618;47.490;8.736;2022-08-01T05:17:06;96770.31;;;19.05;81.15
70954;BME280;58618;47.490;8.736;2022-08-01T05:19:54;96765.97;;;19.29;78.94
70954;BME280;58618;47.490;8.736;2022-08-01T05:22:41;96766.44;;;20.98;72.17
70954;BME280;58618;47.490;8.736;2022-08-01T05:25:28;96766.16;;;21.71;69.65
70954;BME280;58618;47.490;8.736;2022-08-01T05:28:17;96769.28;;;22.55;66.14
70954;BME280;58618;47.490;8.736;2022-08-01T05:31:04;96769.09;;;22.98;63.81
70954;BME280;58618;47.490;8.736;2022-08-01T05:33:52;96766.81;;;23.77;61.94
70954;BME280;58618;47.490;8.736;2022-08-01T05:36:39;96772.50;;;25.04;57.91
70954;BME280;58618;47.490;8.736;2022-08-01T05:39:26;96768.47;;;25.50;55.77
70954;BME280;58618;47.490;8.736;2022-08-01T05:42:14;96767.59;;;25.39;55.59
70954;BME280;58618;47.490;8.736;2022-08-01T05:45:03;96769.31;;;26.42;51.73
70954;BME280;58618;47.490;8.736;2022-08-01T05:47:50;96766.94;;;26.30;50.78
70954;BME280;58618;47.490;8.736;2022-08-01T05:50:38;96758.16;;;26.74;50.76
70954;BME280;58618;47.490;8.736;2022-08-01T05:53:25;96770.09;;;27.22;50.54
70954;BME280;58618;47.490;8.736;2022-08-01T05:56:12;96772.88;;;27.68;49.31
70954;BME280;58618;47.490;8.736;2022-08-01T05:59:00;96767.22;;;28.05;46.94
70954;BME280;58618;47.490;8.736;2022-08-01T06:01:49;96764.22;;;28.18;45.75
70954;BME280;58618;47.490;8.736;2022-08-01T06:04:36;96766.78;;;28.67;45.31
70954;BME280;58618;47.490;8.736;2022-08-01T06:07:23;96774.09;;;29.50;43.07
70954;BME280;58618;47.490;8.736;2022-08-01T06:10:11;96777.91;;;29.49;43.15
70954;BME280;58618;47.490;8.736;2022-08-01T06:12:58;96780.91;;;30.10;41.76
70954;BME280;58618;47.490;8.736;2022-08-01T06:15:49;96784.66;;;30.64;41.05
70954;BME280;58618;47.490;8.736;2022-08-01T06:18:37;96776.94;;;31.37;38.99
70954;BME280;58618;47.490;8.736;2022-08-01T06:21:24;96775.94;;;30.94;40.03
70954;BME280;58618;47.490;8.736;2022-08-01T06:24:12;96773.41;;;31.17;38.94
70954;BME280;58618;47.490;8.736;2022-08-01T06:26:59;96774.34;;;31.00;39.42
70954;BME280;58618;47.490;8.736;2022-08-01T06:29:46;96767.06;;;31.92;36.80
70954;BME280;58618;47.490;8.736;2022-08-01T06:32:34;96770.00;;;31.97;36.48
70954;BME280;58618;47.490;8.736;2022-08-01T06:35:23;96767.94;;;32.32;36.49
70954;BME280;58618;47.490;8.736;2022-08-01T06:38:10;96758.13;;;32.68;33.12
70954;BME280;58618;47.490;8.736;2022-08-01T06:40:58;96766.94;;;32.45;34.24
70954;BME280;58618;47.490;8.736;2022-08-01T06:43:45;96764.88;;;32.33;32.87
70954;BME280;58618;47.490;8.736;2022-08-01T06:46:33;96757.97;;;31.32;35.24
70954;BME280;58618;47.490;8.736;2022-08-01T06:49:21;96757.59;;;30.28;36.26
70954;BME280;58618;47.490;8.736;2022-08-01T06:52:10;96757.63;;;30.21;36.46
70954;BME280;58618;47.490;8.736;2022-08-01T06:54:57;96759.69;;;30.85;35.33
70954;BME280;58618;47.490;8.736;2022-08-01T06:57:46;96763.25;;;31.66;33.90
70954;BME280;58618;47.490;8.736;2022-08-01T07:00:33;96755.38;;;31.28;34.72
70954;BME280;58618;47.490;8.736;2022-08-01T07:03:21;96758.22;;;31.14;33.37
70954;BME280;58618;47.490;8.736;2022-08-01T07:06:08;96755.72;;;33.13;31.04
70954;BME280;58618;47.490;8.736;2022-08-01T07:08:58;96748.09;;;32.33;33.52
70954;BME280;58618;47.490;8.736;2022-08-01T07:11:46;96765.41;;;32.87;31.34
70954;BME280;58618;47.490;8.736;2022-08-01T07:14:34;96748.53;;;32.51;32.07
70954;BME280;58618;47.490;8.736;2022-08-01T07:17:21;96742.19;;;31.18;33.80
70954;BME280;58618;47.490;8.736;2022-08-01T07:20:10;96747.84;;;31.77;31.16
70954;BME280;58618;47.490;8.736;2022-08-01T07:22:57;96746.97;;;31.57;32.91
70954;BME280;58618;47.490;8.736;2022-08-01T07:25:46;96739.97;;;32.16;32.88
70954;BME280;58618;47.490;8.736;2022-08-01T07:28:35;96748.72;;;32.60;32.49
70954;BME280;58618;47.490;8.736;2022-08-01T07:31:22;96742.88;;;32.02;32.09
70954;BME280;58618;47.490;8.736;2022-08-01T07:34:10;96737.84;;;33.30;31.00
70954;BME280;58618;47.490;8.736;2022-08-01T07:37:00;96746.47;;;33.53;31.00
70954;BME280;58618;47.490;8.736;2022-08-01T07:39:47;96739.56;;;33.88;30.61
70954;BME280;58618;47.490;8.736;2022-08-01T07:42:36;96747.09;;;33.77;30.20
70954;BME280;58618;47.490;8.736;2022-08-01T07:45:23;96739.06;;;33.77;29.84
70954;BME280;58618;47.490;8.736;2022-08-01T07:48:12;96745.72;;;33.53;30.40
70954;BME280;58618;47.490;8.736;2022-08-01T07:51:00;96737.88;;;33.62;29.33
70954;BME280;58618;47.490;8.736;2022-08-01T07:53:47;96726.47;;;33.58;30.78
70954;BME280;58618;47.490;8.736;2022-08-01T07:56:35;96726.72;;;33.11;30.03
70954;BME280;58618;47.490;8.736;2022-08-01T07:59:24;96715.88;;;31.46;33.09
70954;BME280;58618;47.490;8.736;2022-08-01T08:02:11;96728.50;;;32.19;32.27
70954;BME280;58618;47.490;8.736;2022-08-01T08:04:58;96708.50;;;32.27;32.36
70954;BME280;58618;47.490;8.736;2022-08-01T08:07:46;96712.03;;;32.84;31.80
70954;BME280;58618;47.490;8.736;2022-08-01T08:10:33;96710.75;;;32.72;32.07
70954;BME280;58618;47.490;8.736;2022-08-01T08:13:20;96709.78;;;31.96;31.63
70954;BME280;58618;47.490;8.736;2022-08-01T08:16:09;96712.91;;;31.41;33.29
70954;BME280;58618;47.490;8.736;2022-08-01T08:18:56;96712.72;;;30.64;34.71
70954;BME280;58618;47.490;8.736;2022-08-01T08:21:44;96701.25;;;29.92;36.01
70954;BME280;58618;47.490;8.736;2022-08-01T08:24:31;96698.00;;;31.17;35.07
70954;BME280;58618;47.490;8.736;2022-08-01T08:27:18;96716.63;;;31.47;33.21
70954;BME280;58618;47.490;8.736;2022-08-01T08:30:07;96704.91;;;31.91;31.76
70954;BME280;58618;47.490;8.736;2022-08-01T08:32:55;96698.09;;;30.45;33.87
70954;BME280;58618;47.490;8.736;2022-08-01T08:35:43;96695.91;;;31.01;33.83
70954;BME280;58618;47.490;8.736;2022-08-01T08:38:30;96698.41;;;30.85;33.77
70954;BME280;58618;47.490;8.736;2022-08-01T08:41:18;96700.06;;;31.32;33.06
70954;BME280;58618;47.490;8.736;2022-08-01T08:44:06;96687.13;;;29.99;33.84
70954;BME280;58618;47.490;8.736;2022-08-01T08:46:55;96686.50;;;30.62;33.73
70954;BME280;58618;47.490;8.736;2022-08-01T08:49:46;96685.38;;;30.90;34.20
70954;BME280;58618;47.490;8.736;2022-08-01T08:52:35;96682.47;;;31.38;33.18
70954;BME280;58618;47.490;8.736;2022-08-01T08:55:26;96686.19;;;31.44;32.40
70954;BME280;58618;47.490;8.736;2022-08-01T08:58:17;96687.53;;;31.56;34.22
70954;BME280;58618;47.490;8.736;2022-08-01T09:01:05;96685.13;;;31.65;33.45
70954;BME280;58618;47.490;8.736;2022-08-01T09:03:53;96684.94;;;32.22;31.02
70954;BME280;58618;47.490;8.736;2022-08-01T09:06:41;96690.41;;;33.14;29.53
70954;BME280;58618;47.490;8.736;2022-08-01T09:09:29;96683.44;;;31.75;32.05
70954;BME280;58618;47.490;8.736;2022-08-01T09:12:16;96677.31;;;30.67;34.84
70954;BME280;58618;47.490;8.736;2022-08-01T09:15:04;96679.72;;;32.15;32.41
70954;BME280;58618;47.490;8.736;2022-08-01T09:17:52;96691.59;;;32.54;33.17
70954;BME280;58618;47.490;8.736;2022-08-01T09:20:39;96690.84;;;32.73;31.68
70954;BME280;58618;47.490;8.736;2022-08-01T09:23:35;96694.09;;;32.21;32.21
70954;BME280;58618;47.490;8.736;2022-08-01T09:26:30;96692.22;;;32.42;30.93
70954;BME280;58618;47.490;8.736;2022-08-01T09:29:19;96687.81;;;32.32;31.65
70954;BME280;58618;47.490;8.736;2022-08-01T09:32:07;96679.22;;;32.44;30.27
70954;BME280;58618;47.490;8.736;2022-08-01T09:34:54;96674.63;;;32.01;31.70
70954;BME280;58618;47.490;8.736;2022-08-01T09:37:42;96680.44;;;32.19;33.01
70954;BME280;58618;47.490;8.736;2022-08-01T09:43:25;96678.72;;;32.06;34.00
70954;BME280;58618;47.490;8.736;2022-08-01T09:46:13;96685.91;;;32.12;33.16
70954;BME280;58618;47.490;8.736;2022-08-01T09:49:03;96673.63;;;30.57;33.22
70954;BME280;58618;47.490;8.736;2022-08-01T09:51:50;96666.56;;;31.31;33.79
70954;BME280;58618;47.490;8.736;2022-08-01T09:54:38;96661.03;;;30.92;35.70
70954;BME280;58618;47.490;8.736;2022-08-01T09:57:27;96655.94;;;30.03;35.01
70954;BME280;58618;47.490;8.736;2022-08-01T10:00:17;96667.78;;;30.32;33.77
70954;BME280;58618;47.490;8.736;2022-08-01T10:03:20;96660.75;;;30.15;33.70
70954;BME280;58618;47.490;8.736;2022-08-01T10:06:19;96659.69;;;30.05;34.95
70954;BME280;58618;47.490;8.736;2022-08-01T10:09:06;96653.06;;;29.79;36.67
70954;BME280;58618;47.490;8.736;2022-08-01T10:11:55;96648.66;;;29.62;35.21
70954;BME280;58618;47.490;8.736;2022-08-01T10:14:43;96653.31;;;29.51;37.05
70954;BME280;58618;47.490;8.736;2022-08-01T10:17:33;96644.13;;;29.59;35.67
70954;BME280;58618;47.490;8.736;2022-08-01T10:20:24;96648.06;;;29.44;34.59
70954;BME280;58618;47.490;8.736;2022-08-01T10:23:11;96640.47;;;29.43;35.80
70954;BME280;58618;47.490;8.736;2022-08-01T10:26:00;96624.19;;;29.37;38.19
70954;BME280;58618;47.490;8.736;2022-08-01T10:28:50;96619.97;;;29.43;36.01
70954;BME280;58618;47.490;8.736;2022-08-01T10:31:38;96623.38;;;29.44;36.74
70954;BME280;58618;47.490;8.736;2022-08-01T10:34:29;96623.78;;;29.38;36.73
70954;BME280;58618;47.490;8.736;2022-08-01T10:37:17;96620.81;;;29.33;39.75
70954;BME280;58618;47.490;8.736;2022-08-01T10:40:06;96615.47;;;29.33;38.68
70954;BME280;58618;47.490;8.736;2022-08-01T10:42:54;96616.22;;;29.30;34.56
70954;BME280;58618;47.490;8.736;2022-08-01T10:45:43;96627.69;;;29.20;35.64
70954;BME280;58618;47.490;8.736;2022-08-01T10:48:36;96610.09;;;28.85;36.09
70954;BME280;58618;47.490;8.736;2022-08-01T10:51:28;96618.47;;;28.69;36.55
70954;BME280;58618;47.490;8.736;2022-08-01T10:54:16;96624.91;;;28.72;40.29
70954;BME280;58618;47.490;8.736;2022-08-01T10:57:03;96618.84;;;28.78;37.03
70954;BME280;58618;47.490;8.736;2022-08-01T10:59:53;96610.53;;;28.69;41.04
70954;BME280;58618;47.490;8.736;2022-08-01T11:02:40;96605.59;;;28.68;36.53
70954;BME280;58618;47.490;8.736;2022-08-01T11:05:34;96604.50;;;28.58;37.73
70954;BME280;58618;47.490;8.736;2022-08-01T11:08:24;96601.53;;;28.49;37.88
70954;BME280;58618;47.490;8.736;2022-08-01T11:11:12;96605.28;;;28.55;43.36
70954;BME280;58618;47.490;8.736;2022-08-01T11:14:01;96595.75;;;28.61;37.71
70954;BME280;58618;47.490;8.736;2022-08-01T11:16:50;96589.63;;;28.78;38.03
70954;BME280;58618;47.490;8.736;2022-08-01T11:23:26;96586.25;;;28.67;37.72
70954;BME280;58618;47.490;8.736;2022-08-01T11:26:19;96590.03;;;28.73;40.71
70954;BME280;58618;47.490;8.736;2022-08-01T11:29:16;96579.41;;;28.73;40.02
70954;BME280;58618;47.490;8.736;2022-08-01T11:32:24;96576.44;;;28.57;37.14
70954;BME280;58618;47.490;8.736;2022-08-01T11:35:12;96574.88;;;28.70;36.86
70954;BME280;58618;47.490;8.736;2022-08-01T11:38:24;96572.97;;;28.67;35.21
70954;BME280;58618;47.490;8.736;2022-08-01T11:41:16;96572.66;;;28.58;36.60
70954;BME280;58618;47.490;8.736;2022-08-01T11:44:08;96574.09;;;28.73;38.60
70954;BME280;58618;47.490;8.736;2022-08-01T11:46:58;96566.41;;;28.89;36.25
70954;BME280;58618;47.490;8.736;2022-08-01T11:49:47;96545.22;;;28.86;34.42
70954;BME280;58618;47.490;8.736;2022-08-01T11:52:40;96558.84;;;28.88;37.04
70954;BME280;58618;47.490;8.736;2022-08-01T11:55:28;96562.50;;;29.05;37.03
70954;BME280;58618;47.490;8.736;2022-08-01T11:58:22;96555.72;;;29.00;35.45
70954;BME280;58618;47.490;8.736;2022-08-01T12:01:12;96559.41;;;29.17;37.72
70954;BME280;58618;47.490;8.736;2022-08-01T12:04:00;96541.25;;;29.05;32.78
70954;BME280;58618;47.490;8.736;2022-08-01T12:06:48;96548.72;;;29.24;34.49
70954;BME280;58618;47.490;8.736;2022-08-01T12:09:35;96543.41;;;29.20;34.27
70954;BME280;58618;47.490;8.736;2022-08-01T12:12:22;96540.13;;;29.06;35.50
70954;BME280;58618;47.490;8.736;2022-08-01T12:15:12;96529.94;;;28.97;33.85
70954;BME280;58618;47.490;8.736;2022-08-01T12:18:01;96534.47;;;29.00;34.30
70954;BME280;58618;47.490;8.736;2022-08-01T12:20:50;96531.50;;;28.87;35.35
70954;BME280;58618;47.490;8.736;2022-08-01T12:23:37;96528.13;;;28.83;34.33
70954;BME280;58618;47.490;8.736;2022-08-01T12:26:38;96521.56;;;29.02;34.64
70954;BME280;58618;47.490;8.736;2022-08-01T12:29:33;96525.31;;;29.05;30.87
70954;BME280;58618;47.490;8.736;2022-08-01T12:32:25;96516.22;;;29.06;29.86
70954;BME280;58618;47.490;8.736;2022-08-01T12:35:14;96514.66;;;29.12;34.75
70954;BME280;58618;47.490;8.736;2022-08-01T12:38:03;96523.03;;;29.07;33.60
70954;BME280;58618;47.490;8.736;2022-08-01T12:40:51;96515.44;;;29.05;35.58
70954;BME280;58618;47.490;8.736;2022-08-01T12:43:39;96514.66;;;29.12;34.27
70954;BME280;58618;47.490;8.736;2022-08-01T12:46:27;96514.94;;;29.21;32.71
70954;BME280;58618;47.490;8.736;2022-08-01T12:49:15;96514.56;;;29.19;30.81
70954;BME280;58618;47.490;8.736;2022-08-01T12:52:04;96499.97;;;28.96;29.80
70954;BME280;58618;47.490;8.736;2022-08-01T12:55:05;96498.88;;;28.90;29.25
70954;BME280;58618;47.490;8.736;2022-08-01T12:58:04;96504.06;;;29.05;30.57
70954;BME280;58618;47.490;8.736;2022-08-01T13:01:02;96508.31;;;29.43;34.11
70954;BME280;58618;47.490;8.736;2022-08-01T13:03:57;96503.66;;;29.54;31.72
70954;BME280;58618;47.490;8.736;2022-08-01T13:06:46;96505.72;;;29.73;31.87
70954;BME280;58618;47.490;8.736;2022-08-01T13:09:33;96499.63;;;29.76;29.45
70954;BME280;58618;47.490;8.736;2022-08-01T13:12:21;96494.38;;;29.69;29.75
70954;BME280;58618;47.490;8.736;2022-08-01T13:15:20;96497.41;;;29.71;31.34
70954;BME280;58618;47.490;8.736;2022-08-01T13:18:26;96472.63;;;29.41;29.15
70954;BME280;58618;47.490;8.736;2022-08-01T13:21:15;96474.91;;;29.42;29.74
70954;BME280;58618;47.490;8.736;2022-08-01T13:24:06;96473.16;;;29.62;28.89
70954;BME280;58618;47.490;8.736;2022-08-01T13:26:56;96476.03;;;29.78;32.25
70954;BME280;58618;47.490;8.736;2022-08-01T13:29:45;96473.72;;;29.80;28.17
70954;BME280;58618;47.490;8.736;2022-08-01T13:32:35;96481.78;;;29.73;29.53
70954;BME280;58618;47.490;8.736;2022-08-01T13:35:23;96486.75;;;29.71;30.47
70954;BME280;58618;47.490;8.736;2022-08-01T13:38:10;96492.06;;;29.71;30.42
70954;BME280;58618;47.490;8.736;2022-08-01T13:40:59;96485.59;;;29.72;31.69
70954;BME280;58618;47.490;8.736;2022-08-01T13:43:46;96482.22;;;29.68;32.36
70954;BME280;58618;47.490;8.736;2022-08-01T13:46:34;96483.03;;;29.65;33.28
70954;BME280;58618;47.490;8.736;2022-08-01T13:49:22;96487.00;;;29.50;31.83
70954;BME280;58618;47.490;8.736;2022-08-01T13:52:09;96487.69;;;29.54;28.95
70954;BME280;58618;47.490;8.736;2022-08-01T13:54:56;96471.91;;;29.36;32.40
70954;BME280;58618;47.490;8.736;2022-08-01T13:57:45;96480.66;;;29.37;28.41
70954;BME280;58618;47.490;8.736;2022-08-01T14:00:32;96474.50;;;28.99;29.29
70954;BME280;58618;47.490;8.736;2022-08-01T14:03:19;96474.47;;;29.06;31.45
70954;BME280;58618;47.490;8.736;2022-08-01T14:06:07;96471.16;;;29.36;32.31
70954;BME280;58618;47.490;8.736;2022-08-01T14:08:54;96470.22;;;29.53;28.90
70954;BME280;58618;47.490;8.736;2022-08-01T14:11:42;96468.28;;;29.57;28.36
70954;BME280;58618;47.490;8.736;2022-08-01T14:14:30;96463.28;;;29.63;28.86
70954;BME280;58618;47.490;8.736;2022-08-01T14:17:18;96462.53;;;29.62;28.70
70954;BME280;58618;47.490;8.736;2022-08-01T14:20:06;96477.25;;;29.70;29.14
70954;BME280;58618;47.490;8.736;2022-08-01T14:22:53;96465.56;;;29.64;27.05
70954;BME280;58618;47.490;8.736;2022-08-01T14:25:41;96466.34;;;29.61;26.62
70954;BME280;58618;47.490;8.736;2022-08-01T14:28:28;96460.56;;;29.66;25.70
70954;BME280;58618;47.490;8.736;2022-08-01T14:31:17;96453.41;;;29.63;26.55
70954;BME280;58618;47.490;8.736;2022-08-01T14:34:04;96453.78;;;29.65;28.47
70954;BME280;58618;47.490;8.736;2022-08-01T14:36:52;96457.91;;;29.66;29.05
70954;BME280;58618;47.490;8.736;2022-08-01T14:39:40;96453.34;;;29.67;25.02
70954;BME280;58618;47.490;8.736;2022-08-01T14:42:27;96457.22;;;29.62;24.95
70954;BME280;58618;47.490;8.736;2022-08-01T14:45:15;96452.06;;;29.48;25.24
70954;BME280;58618;47.490;8.736;2022-08-01T14:48:04;96447.59;;;29.38;26.12
70954;BME280;58618;47.490;8.736;2022-08-01T14:50:51;96448.22;;;29.53;26.62
70954;BME280;58618;47.490;8.736;2022-08-01T14:53:39;96447.66;;;29.68;29.21
70954;BME280;58618;47.490;8.736;2022-08-01T14:56:26;96451.88;;;29.62;28.28
70954;BME280;58618;47.490;8.736;2022-08-01T14:59:13;96454.91;;;29.64;29.38
70954;BME280;58618;47.490;8.736;2022-08-01T15:02:01;96453.13;;;29.54;29.50